sensor_id;sensor_type;location;lat;lon;timestamp;P1;durP1;ratioP1;P2;durP2;ratioP2
43678;SDS011;29279;50.858;4.392;2023-09-18T00:01:04;11.25;;;5.78;;
43678;SDS011;29279;50.858;4.392;2023-09-18T00:03:31;7.50;;;5.00;;
43678;SDS011;29279;50.858;4.392;2023-09-18T00:05:57;8.90;;;5.50;;
43678;SDS011;29279;50.858;4.392;2023-09-18T00:08:23;10.18;;;6.18;;
43678;SDS011;29279;50.858;4.392;2023-09-18T00:10:49;10.15;;;5.55;;
43678;SDS011;29279;50.858;4.392;2023-09-18T00:13:18;14.10;;;5.88;;
43678;SDS011;29279;50.858;4.392;2023-09-18T00:15:43;12.27;;;5.80;;
43678;SDS011;29279;50.858;4.392;2023-09-18T00:18:13;20.73;;;5.97;;
43678;SDS011;29279;50.858;4.392;2023-09-18T00:20:40;11.05;;;5.78;;
43678;SDS011;29279;50.858;4.392;2023-09-18T00:23:06;10.70;;;5.88;;
43678;SDS011;29279;50.858;4.392;2023-09-18T00:25:32;10.88;;;5.22;;
43678;SDS011;29279;50.858;4.392;2023-09-18T00:27:58;11.07;;;5.25;;
43678;SDS011;29279;50.858;4.392;2023-09-18T00:30:24;11.98;;;5.72;;
43678;SDS011;29279;50.858;4.392;2023-09-18T00:32:49;13.77;;;5.43;;
43678;SDS011;29279;50.858;4.392;2023-09-18T00:35:15;9.80;;;4.97;;
43678;SDS011;29279;50.858;4.392;2023-09-18T00:37:41;8.70;;;4.90;;
43678;SDS011;29279;50.858;4.392;2023-09-18T00:40:08;12.82;;;5.53;;
43678;SDS011;29279;50.858;4.392;2023-09-18T00:42:34;16.80;;;5.80;;
43678;SDS011;29279;50.858;4.392;2023-09-18T00:45:01;10.52;;;6.03;;
43678;SDS011;29279;50.858;4.392;2023-09-18T00:47:27;20.58;;;6.38;;
43678;SDS011;29279;50.858;4.392;2023-09-18T00:49:53;17.05;;;6.72;;
43678;SDS011;29279;50.858;4.392;2023-09-18T00:52:20;12.27;;;6.25;;
43678;SDS011;29279;50.858;4.392;2023-09-18T00:54:48;13.73;;;7.05;;
43678;SDS011;29279;50.858;4.392;2023-09-18T00:57:15;11.05;;;6.65;;
43678;SDS011;29279;50.858;4.392;2023-09-18T00:59:41;15.07;;;7.05;;
43678;SDS011;29279;50.858;4.392;2023-09-18T01:02:06;15.23;;;7.45;;
43678;SDS011;29279;50.858;4.392;2023-09-18T01:04:33;12.18;;;6.80;;
43678;SDS011;29279;50.858;4.392;2023-09-18T01:06:59;13.27;;;6.43;;
43678;SDS011;29279;50.858;4.392;2023-09-18T01:09:28;11.10;;;6.55;;
43678;SDS011;29279;50.858;4.392;2023-09-18T01:17:24;12.65;;;6.80;;
43678;SDS011;29279;50.858;4.392;2023-09-18T01:19:51;12.70;;;6.57;;
43678;SDS011;29279;50.858;4.392;2023-09-18T01:22:17;13.32;;;6.97;;
43678;SDS011;29279;50.858;4.392;2023-09-18T01:24:44;8.27;;;5.68;;
43678;SDS011;29279;50.858;4.392;2023-09-18T01:27:17;8.68;;;5.07;;
43678;SDS011;29279;50.858;4.392;2023-09-18T01:29:47;7.72;;;5.00;;
43678;SDS011;29279;50.858;4.392;2023-09-18T01:32:13;9.90;;;5.43;;
43678;SDS011;29279;50.858;4.392;2023-09-18T01:34:40;10.23;;;4.85;;
43678;SDS011;29279;50.858;4.392;2023-09-18T01:37:10;8.15;;;5.50;;
43678;SDS011;29279;50.858;4.392;2023-09-18T01:39:37;14.60;;;6.47;;
43678;SDS011;29279;50.858;4.392;2023-09-18T01:42:04;17.95;;;6.68;;
43678;SDS011;29279;50.858;4.392;2023-09-18T01:44:31;11.73;;;6.88;;
43678;SDS011;29279;50.858;4.392;2023-09-18T01:46:58;10.10;;;6.35;;
43678;SDS011;29279;50.858;4.392;2023-09-18T01:49:31;9.52;;;5.95;;
43678;SDS011;29279;50.858;4.392;2023-09-18T01:51:58;19.70;;;6.32;;
43678;SDS011;29279;50.858;4.392;2023-09-18T01:54:24;11.73;;;5.78;;
43678;SDS011;29279;50.858;4.392;2023-09-18T01:56:50;13.07;;;6.32;;
43678;SDS011;29279;50.858;4.392;2023-09-18T01:59:17;14.88;;;6.53;;
43678;SDS011;29279;50.858;4.392;2023-09-18T02:01:43;14.13;;;7.05;;
43678;SDS011;29279;50.858;4.392;2023-09-18T02:04:09;15.23;;;7.05;;
43678;SDS011;29279;50.858;4.392;2023-09-18T02:06:35;15.02;;;6.80;;
43678;SDS011;29279;50.858;4.392;2023-09-18T02:09:01;16.45;;;7.72;;
43678;SDS011;29279;50.858;4.392;2023-09-18T02:11:27;11.95;;;6.57;;
43678;SDS011;29279;50.858;4.392;2023-09-18T02:13:53;8.88;;;6.57;;
43678;SDS011;29279;50.858;4.392;2023-09-18T02:16:18;15.82;;;7.40;;
43678;SDS011;29279;50.858;4.392;2023-09-18T02:18:49;12.40;;;7.25;;
43678;SDS011;29279;50.858;4.392;2023-09-18T02:21:21;11.70;;;6.75;;
43678;SDS011;29279;50.858;4.392;2023-09-18T02:23:50;14.98;;;7.80;;
43678;SDS011;29279;50.858;4.392;2023-09-18T02:26:19;17.38;;;6.72;;
43678;SDS011;29279;50.858;4.392;2023-09-18T02:28:45;14.73;;;7.35;;
43678;SDS011;29279;50.858;4.392;2023-09-18T02:31:11;14.13;;;7.30;;
43678;SDS011;29279;50.858;4.392;2023-09-18T02:33:37;10.55;;;6.85;;
43678;SDS011;29279;50.858;4.392;2023-09-18T02:36:03;12.00;;;6.32;;
43678;SDS011;29279;50.858;4.392;2023-09-18T02:38:29;12.73;;;6.38;;
43678;SDS011;29279;50.858;4.392;2023-09-18T02:40:55;14.82;;;7.32;;
43678;SDS011;29279;50.858;4.392;2023-09-18T02:43:22;9.45;;;5.97;;
43678;SDS011;29279;50.858;4.392;2023-09-18T02:45:48;10.18;;;5.15;;
43678;SDS011;29279;50.858;4.392;2023-09-18T02:48:14;9.75;;;5.10;;
43678;SDS011;29279;50.858;4.392;2023-09-18T02:50:39;7.90;;;4.65;;
43678;SDS011;29279;50.858;4.392;2023-09-18T02:53:05;12.23;;;4.82;;
43678;SDS011;29279;50.858;4.392;2023-09-18T02:55:33;7.10;;;4.00;;
43678;SDS011;29279;50.858;4.392;2023-09-18T02:57:59;6.95;;;3.30;;
43678;SDS011;29279;50.858;4.392;2023-09-18T03:00:25;7.60;;;3.30;;
43678;SDS011;29279;50.858;4.392;2023-09-18T03:02:50;5.15;;;3.33;;
43678;SDS011;29279;50.858;4.392;2023-09-18T03:05:16;8.40;;;2.38;;
43678;SDS011;29279;50.858;4.392;2023-09-18T03:07:42;5.30;;;2.28;;
43678;SDS011;29279;50.858;4.392;2023-09-18T03:10:09;3.15;;;2.15;;
43678;SDS011;29279;50.858;4.392;2023-09-18T03:12:38;5.20;;;1.80;;
43678;SDS011;29279;50.858;4.392;2023-09-18T03:15:07;4.80;;;2.35;;
43678;SDS011;29279;50.858;4.392;2023-09-18T03:17:33;3.80;;;2.00;;
43678;SDS011;29279;50.858;4.392;2023-09-18T03:19:58;4.43;;;1.70;;
43678;SDS011;29279;50.858;4.392;2023-09-18T03:22:25;4.10;;;2.10;;
43678;SDS011;29279;50.858;4.392;2023-09-18T03:24:51;3.88;;;1.83;;
43678;SDS011;29279;50.858;4.392;2023-09-18T03:27:16;5.25;;;1.88;;
43678;SDS011;29279;50.858;4.392;2023-09-18T03:29:42;4.85;;;1.85;;
43678;SDS011;29279;50.858;4.392;2023-09-18T03:32:07;4.63;;;1.95;;
43678;SDS011;29279;50.858;4.392;2023-09-18T03:34:37;7.05;;;2.17;;
43678;SDS011;29279;50.858;4.392;2023-09-18T03:37:03;2.55;;;1.63;;
43678;SDS011;29279;50.858;4.392;2023-09-18T03:39:29;4.53;;;2.10;;
43678;SDS011;29279;50.858;4.392;2023-09-18T03:41:54;4.50;;;2.78;;
43678;SDS011;29279;50.858;4.392;2023-09-18T03:44:20;4.57;;;2.65;;
43678;SDS011;29279;50.858;4.392;2023-09-18T03:46:46;7.00;;;2.80;;
43678;SDS011;29279;50.858;4.392;2023-09-18T03:49:11;12.35;;;3.78;;
43678;SDS011;29279;50.858;4.392;2023-09-18T03:51:37;9.35;;;3.85;;
43678;SDS011;29279;50.858;4.392;2023-09-18T03:54:03;5.78;;;2.83;;
43678;SDS011;29279;50.858;4.392;2023-09-18T03:56:29;8.32;;;3.50;;
43678;SDS011;29279;50.858;4.392;2023-09-18T03:58:54;8.32;;;3.47;;
43678;SDS011;29279;50.858;4.392;2023-09-18T04:01:20;7.53;;;2.45;;
43678;SDS011;29279;50.858;4.392;2023-09-18T04:03:46;6.60;;;2.72;;
43678;SDS011;29279;50.858;4.392;2023-09-18T04:06:11;6.35;;;2.83;;
43678;SDS011;29279;50.858;4.392;2023-09-18T04:08:37;9.77;;;3.13;;
43678;SDS011;29279;50.858;4.392;2023-09-18T04:11:02;7.85;;;2.92;;
43678;SDS011;29279;50.858;4.392;2023-09-18T04:13:29;5.93;;;2.75;;
43678;SDS011;29279;50.858;4.392;2023-09-18T04:15:55;4.38;;;2.58;;
43678;SDS011;29279;50.858;4.392;2023-09-18T04:18:22;7.93;;;3.05;;
43678;SDS011;29279;50.858;4.392;2023-09-18T04:20:48;9.15;;;3.00;;
43678;SDS011;29279;50.858;4.392;2023-09-18T04:23:17;8.45;;;2.88;;
43678;SDS011;29279;50.858;4.392;2023-09-18T04:25:51;5.22;;;2.38;;
43678;SDS011;29279;50.858;4.392;2023-09-18T04:28:18;6.03;;;2.92;;
43678;SDS011;29279;50.858;4.392;2023-09-18T04:30:45;6.03;;;2.88;;
43678;SDS011;29279;50.858;4.392;2023-09-18T04:33:11;6.13;;;2.92;;
43678;SDS011;29279;50.858;4.392;2023-09-18T04:35:38;6.65;;;2.70;;
43678;SDS011;29279;50.858;4.392;2023-09-18T04:38:05;6.78;;;2.42;;
43678;SDS011;29279;50.858;4.392;2023-09-18T04:40:31;9.57;;;2.05;;
43678;SDS011;29279;50.858;4.392;2023-09-18T04:42:58;4.63;;;2.20;;
43678;SDS011;29279;50.858;4.392;2023-09-18T04:45:24;6.72;;;2.03;;
43678;SDS011;29279;50.858;4.392;2023-09-18T04:47:50;7.97;;;1.88;;
43678;SDS011;29279;50.858;4.392;2023-09-18T04:50:16;4.88;;;1.60;;
43678;SDS011;29279;50.858;4.392;2023-09-18T04:52:42;6.32;;;1.73;;
43678;SDS011;29279;50.858;4.392;2023-09-18T04:55:09;3.47;;;1.60;;
43678;SDS011;29279;50.858;4.392;2023-09-18T04:57:35;4.75;;;1.75;;
43678;SDS011;29279;50.858;4.392;2023-09-18T05:00:01;4.50;;;1.88;;
43678;SDS011;29279;50.858;4.392;2023-09-18T05:02:27;6.35;;;1.85;;
43678;SDS011;29279;50.858;4.392;2023-09-18T05:04:55;3.78;;;1.58;;
43678;SDS011;29279;50.858;4.392;2023-09-18T05:07:21;5.53;;;1.45;;
43678;SDS011;29279;50.858;4.392;2023-09-18T05:09:47;3.40;;;1.50;;
43678;SDS011;29279;50.858;4.392;2023-09-18T05:12:12;3.97;;;1.73;;
43678;SDS011;29279;50.858;4.392;2023-09-18T05:14:41;3.63;;;1.60;;
43678;SDS011;29279;50.858;4.392;2023-09-18T05:17:14;4.75;;;1.50;;
43678;SDS011;29279;50.858;4.392;2023-09-18T05:19:41;4.75;;;1.63;;
43678;SDS011;29279;50.858;4.392;2023-09-18T05:22:11;6.22;;;1.90;;
43678;SDS011;29279;50.858;4.392;2023-09-18T05:24:37;3.92;;;1.60;;
43678;SDS011;29279;50.858;4.392;2023-09-18T05:27:03;5.72;;;2.05;;
43678;SDS011;29279;50.858;4.392;2023-09-18T05:29:31;8.40;;;1.73;;
43678;SDS011;29279;50.858;4.392;2023-09-18T05:31:57;7.10;;;2.28;;
43678;SDS011;29279;50.858;4.392;2023-09-18T05:34:22;3.78;;;1.90;;
43678;SDS011;29279;50.858;4.392;2023-09-18T05:36:48;17.58;;;2.00;;
43678;SDS011;29279;50.858;4.392;2023-09-18T05:39:15;6.10;;;2.28;;
43678;SDS011;29279;50.858;4.392;2023-09-18T05:41:40;7.07;;;2.30;;
43678;SDS011;29279;50.858;4.392;2023-09-18T05:44:06;2.80;;;1.50;;
43678;SDS011;29279;50.858;4.392;2023-09-18T05:46:36;7.65;;;1.92;;
43678;SDS011;29279;50.858;4.392;2023-09-18T05:49:02;5.63;;;1.70;;
43678;SDS011;29279;50.858;4.392;2023-09-18T05:51:29;7.35;;;1.75;;
43678;SDS011;29279;50.858;4.392;2023-09-18T05:53:56;5.85;;;2.17;;
43678;SDS011;29279;50.858;4.392;2023-09-18T05:56:21;10.48;;;2.38;;
43678;SDS011;29279;50.858;4.392;2023-09-18T05:58:49;6.47;;;2.20;;
43678;SDS011;29279;50.858;4.392;2023-09-18T06:01:14;4.97;;;2.17;;
43678;SDS011;29279;50.858;4.392;2023-09-18T06:03:40;5.53;;;2.05;;
43678;SDS011;29279;50.858;4.392;2023-09-18T06:06:06;10.27;;;2.47;;
43678;SDS011;29279;50.858;4.392;2023-09-18T06:08:32;5.45;;;2.20;;
43678;SDS011;29279;50.858;4.392;2023-09-18T06:10:58;5.97;;;2.22;;
43678;SDS011;29279;50.858;4.392;2023-09-18T06:13:24;4.53;;;2.00;;
43678;SDS011;29279;50.858;4.392;2023-09-18T06:15:51;8.70;;;2.05;;
43678;SDS011;29279;50.858;4.392;2023-09-18T06:18:19;10.98;;;2.65;;
43678;SDS011;29279;50.858;4.392;2023-09-18T06:20:46;7.47;;;2.58;;
43678;SDS011;29279;50.858;4.392;2023-09-18T06:23:12;8.77;;;2.47;;
43678;SDS011;29279;50.858;4.392;2023-09-18T06:25:37;8.57;;;2.25;;
43678;SDS011;29279;50.858;4.392;2023-09-18T06:28:04;11.10;;;2.30;;
43678;SDS011;29279;50.858;4.392;2023-09-18T06:30:30;8.65;;;2.33;;
43678;SDS011;29279;50.858;4.392;2023-09-18T06:32:56;6.85;;;2.30;;
43678;SDS011;29279;50.858;4.392;2023-09-18T06:35:22;7.32;;;2.33;;
43678;SDS011;29279;50.858;4.392;2023-09-18T06:37:47;9.35;;;2.50;;
43678;SDS011;29279;50.858;4.392;2023-09-18T06:40:13;10.00;;;2.35;;
43678;SDS011;29279;50.858;4.392;2023-09-18T06:42:39;7.55;;;3.20;;
43678;SDS011;29279;50.858;4.392;2023-09-18T06:45:05;9.55;;;3.15;;
43678;SDS011;29279;50.858;4.392;2023-09-18T06:47:34;6.68;;;2.22;;
43678;SDS011;29279;50.858;4.392;2023-09-18T06:50:00;6.45;;;2.30;;
43678;SDS011;29279;50.858;4.392;2023-09-18T06:52:26;9.15;;;2.72;;
43678;SDS011;29279;50.858;4.392;2023-09-18T06:54:53;4.95;;;2.78;;
43678;SDS011;29279;50.858;4.392;2023-09-18T06:57:19;12.05;;;3.15;;
43678;SDS011;29279;50.858;4.392;2023-09-18T06:59:46;6.28;;;2.90;;
43678;SDS011;29279;50.858;4.392;2023-09-18T07:02:12;14.52;;;3.05;;
43678;SDS011;29279;50.858;4.392;2023-09-18T07:04:40;7.13;;;3.38;;
43678;SDS011;29279;50.858;4.392;2023-09-18T07:07:09;6.85;;;2.72;;
43678;SDS011;29279;50.858;4.392;2023-09-18T07:09:37;10.48;;;3.45;;
43678;SDS011;29279;50.858;4.392;2023-09-18T07:12:03;9.20;;;2.80;;
43678;SDS011;29279;50.858;4.392;2023-09-18T07:14:29;7.68;;;2.90;;
43678;SDS011;29279;50.858;4.392;2023-09-18T07:16:56;8.60;;;3.00;;
43678;SDS011;29279;50.858;4.392;2023-09-18T07:19:21;9.32;;;3.10;;
43678;SDS011;29279;50.858;4.392;2023-09-18T07:21:47;7.72;;;3.10;;
43678;SDS011;29279;50.858;4.392;2023-09-18T07:24:13;7.82;;;2.92;;
43678;SDS011;29279;50.858;4.392;2023-09-18T07:26:43;6.47;;;2.92;;
43678;SDS011;29279;50.858;4.392;2023-09-18T07:29:12;6.40;;;2.95;;
43678;SDS011;29279;50.858;4.392;2023-09-18T07:31:42;5.50;;;2.50;;
43678;SDS011;29279;50.858;4.392;2023-09-18T07:34:08;7.55;;;3.20;;
43678;SDS011;29279;50.858;4.392;2023-09-18T07:36:34;7.80;;;3.10;;
43678;SDS011;29279;50.858;4.392;2023-09-18T07:39:00;7.57;;;2.75;;
43678;SDS011;29279;50.858;4.392;2023-09-18T07:41:26;7.78;;;3.10;;
43678;SDS011;29279;50.858;4.392;2023-09-18T07:43:51;9.18;;;2.80;;
43678;SDS011;29279;50.858;4.392;2023-09-18T07:46:18;11.60;;;2.95;;
43678;SDS011;29279;50.858;4.392;2023-09-18T07:48:43;7.97;;;2.58;;
43678;SDS011;29279;50.858;4.392;2023-09-18T07:51:12;5.70;;;2.70;;
43678;SDS011;29279;50.858;4.392;2023-09-18T07:53:39;5.55;;;2.40;;
43678;SDS011;29279;50.858;4.392;2023-09-18T07:56:05;7.97;;;2.85;;
43678;SDS011;29279;50.858;4.392;2023-09-18T07:58:31;5.65;;;2.42;;
43678;SDS011;29279;50.858;4.392;2023-09-18T08:00:58;9.40;;;2.88;;
43678;SDS011;29279;50.858;4.392;2023-09-18T08:03:24;11.68;;;2.90;;
43678;SDS011;29279;50.858;4.392;2023-09-18T08:05:51;7.50;;;3.03;;
43678;SDS011;29279;50.858;4.392;2023-09-18T08:08:18;9.00;;;3.10;;
43678;SDS011;29279;50.858;4.392;2023-09-18T08:10:46;7.97;;;2.70;;
43678;SDS011;29279;50.858;4.392;2023-09-18T08:13:12;10.90;;;3.45;;
43678;SDS011;29279;50.858;4.392;2023-09-18T08:15:38;10.00;;;3.03;;
43678;SDS011;29279;50.858;4.392;2023-09-18T08:18:04;5.55;;;2.92;;
43678;SDS011;29279;50.858;4.392;2023-09-18T08:20:30;7.18;;;3.30;;
43678;SDS011;29279;50.858;4.392;2023-09-18T08:22:55;10.43;;;3.35;;
43678;SDS011;29279;50.858;4.392;2023-09-18T08:25:21;9.38;;;3.90;;
43678;SDS011;29279;50.858;4.392;2023-09-18T08:27:47;15.15;;;4.32;;
43678;SDS011;29279;50.858;4.392;2023-09-18T08:30:13;5.82;;;3.80;;
43678;SDS011;29279;50.858;4.392;2023-09-18T08:32:41;13.75;;;4.70;;
43678;SDS011;29279;50.858;4.392;2023-09-18T08:35:07;9.90;;;4.80;;
43678;SDS011;29279;50.858;4.392;2023-09-18T08:37:34;7.93;;;4.25;;
43678;SDS011;29279;50.858;4.392;2023-09-18T08:39:59;13.27;;;4.20;;
43678;SDS011;29279;50.858;4.392;2023-09-18T08:42:25;14.40;;;4.50;;
43678;SDS011;29279;50.858;4.392;2023-09-18T08:44:55;14.88;;;4.75;;
43678;SDS011;29279;50.858;4.392;2023-09-18T08:47:23;18.60;;;4.63;;
43678;SDS011;29279;50.858;4.392;2023-09-18T08:49:49;12.68;;;4.53;;
43678;SDS011;29279;50.858;4.392;2023-09-18T08:52:17;11.07;;;4.43;;
43678;SDS011;29279;50.858;4.392;2023-09-18T08:54:43;14.68;;;4.40;;
43678;SDS011;29279;50.858;4.392;2023-09-18T08:57:10;11.15;;;3.70;;
43678;SDS011;29279;50.858;4.392;2023-09-18T08:59:37;11.43;;;3.90;;
43678;SDS011;29279;50.858;4.392;2023-09-18T09:02:05;10.00;;;3.78;;
43678;SDS011;29279;50.858;4.392;2023-09-18T09:04:31;6.88;;;3.83;;
43678;SDS011;29279;50.858;4.392;2023-09-18T09:06:56;11.82;;;3.53;;
43678;SDS011;29279;50.858;4.392;2023-09-18T09:09:24;9.57;;;3.78;;
43678;SDS011;29279;50.858;4.392;2023-09-18T09:11:51;13.45;;;3.80;;
43678;SDS011;29279;50.858;4.392;2023-09-18T09:14:17;13.07;;;4.03;;
43678;SDS011;29279;50.858;4.392;2023-09-18T09:16:50;7.25;;;3.40;;
43678;SDS011;29279;50.858;4.392;2023-09-18T09:19:17;13.95;;;4.35;;
43678;SDS011;29279;50.858;4.392;2023-09-18T09:21:43;14.18;;;4.13;;
43678;SDS011;29279;50.858;4.392;2023-09-18T09:24:10;13.43;;;4.05;;
43678;SDS011;29279;50.858;4.392;2023-09-18T09:26:39;13.07;;;3.85;;
43678;SDS011;29279;50.858;4.392;2023-09-18T09:29:19;15.20;;;4.53;;
43678;SDS011;29279;50.858;4.392;2023-09-18T09:31:46;11.88;;;3.63;;
43678;SDS011;29279;50.858;4.392;2023-09-18T09:34:12;12.60;;;4.85;;
43678;SDS011;29279;50.858;4.392;2023-09-18T09:36:55;11.90;;;4.35;;
43678;SDS011;29279;50.858;4.392;2023-09-18T09:39:22;11.02;;;4.20;;
43678;SDS011;29279;50.858;4.392;2023-09-18T09:41:52;10.02;;;3.85;;
43678;SDS011;29279;50.858;4.392;2023-09-18T09:44:18;12.82;;;4.00;;
43678;SDS011;29279;50.858;4.392;2023-09-18T09:46:46;17.00;;;4.50;;
43678;SDS011;29279;50.858;4.392;2023-09-18T09:49:13;12.15;;;4.38;;
43678;SDS011;29279;50.858;4.392;2023-09-18T09:51:40;13.20;;;4.00;;
43678;SDS011;29279;50.858;4.392;2023-09-18T09:54:08;11.25;;;3.70;;
43678;SDS011;29279;50.858;4.392;2023-09-18T09:59:15;8.45;;;4.03;;
43678;SDS011;29279;50.858;4.392;2023-09-18T10:01:45;12.90;;;4.25;;
43678;SDS011;29279;50.858;4.392;2023-09-18T10:04:15;10.60;;;4.03;;
43678;SDS011;29279;50.858;4.392;2023-09-18T10:06:43;13.52;;;3.97;;
43678;SDS011;29279;50.858;4.392;2023-09-18T10:09:11;11.25;;;4.57;;
43678;SDS011;29279;50.858;4.392;2023-09-18T10:11:40;9.50;;;3.40;;
43678;SDS011;29279;50.858;4.392;2023-09-18T10:14:13;7.75;;;3.88;;
43678;SDS011;29279;50.858;4.392;2023-09-18T10:16:41;9.32;;;4.20;;
43678;SDS011;29279;50.858;4.392;2023-09-18T10:22:06;8.65;;;4.10;;
43678;SDS011;29279;50.858;4.392;2023-09-18T10:25:29;13.18;;;3.85;;
43678;SDS011;29279;50.858;4.392;2023-09-18T10:27:57;10.55;;;4.13;;
43678;SDS011;29279;50.858;4.392;2023-09-18T10:30:26;10.68;;;3.97;;
43678;SDS011;29279;50.858;4.392;2023-09-18T10:32:52;13.73;;;3.53;;
43678;SDS011;29279;50.858;4.392;2023-09-18T10:35:18;12.63;;;3.63;;
43678;SDS011;29279;50.858;4.392;2023-09-18T10:37:46;7.57;;;2.97;;
43678;SDS011;29279;50.858;4.392;2023-09-18T10:40:13;8.60;;;3.58;;
43678;SDS011;29279;50.858;4.392;2023-09-18T10:42:40;11.85;;;3.60;;
43678;SDS011;29279;50.858;4.392;2023-09-18T10:45:07;10.18;;;3.45;;
43678;SDS011;29279;50.858;4.392;2023-09-18T10:47:38;11.73;;;3.90;;
43678;SDS011;29279;50.858;4.392;2023-09-18T10:50:07;13.93;;;4.00;;
43678;SDS011;29279;50.858;4.392;2023-09-18T10:52:34;5.90;;;3.42;;
43678;SDS011;29279;50.858;4.392;2023-09-18T10:55:01;11.88;;;3.58;;
43678;SDS011;29279;50.858;4.392;2023-09-18T10:57:34;8.57;;;3.20;;
43678;SDS011;29279;50.858;4.392;2023-09-18T11:02:39;9.43;;;3.00;;
43678;SDS011;29279;50.858;4.392;2023-09-18T11:05:05;10.45;;;2.67;;
43678;SDS011;29279;50.858;4.392;2023-09-18T11:07:31;7.30;;;2.60;;
43678;SDS011;29279;50.858;4.392;2023-09-18T11:09:57;8.40;;;2.80;;
43678;SDS011;29279;50.858;4.392;2023-09-18T11:12:41;4.90;;;2.65;;
43678;SDS011;29279;50.858;4.392;2023-09-18T11:15:09;6.18;;;2.75;;
43678;SDS011;29279;50.858;4.392;2023-09-18T11:18:09;8.57;;;3.20;;
43678;SDS011;29279;50.858;4.392;2023-09-18T11:20:34;4.43;;;2.40;;
43678;SDS011;29279;50.858;4.392;2023-09-18T11:25:40;7.70;;;2.70;;
43678;SDS011;29279;50.858;4.392;2023-09-18T11:28:07;7.93;;;1.95;;
43678;SDS011;29279;50.858;4.392;2023-09-18T11:30:38;5.95;;;2.08;;
43678;SDS011;29279;50.858;4.392;2023-09-18T11:41:22;9.25;;;2.90;;
43678;SDS011;29279;50.858;4.392;2023-09-18T11:43:50;8.82;;;2.75;;
43678;SDS011;29279;50.858;4.392;2023-09-18T11:46:19;7.40;;;2.53;;
43678;SDS011;29279;50.858;4.392;2023-09-18T11:48:49;9.65;;;2.58;;
43678;SDS011;29279;50.858;4.392;2023-09-18T11:51:20;7.85;;;2.47;;
43678;SDS011;29279;50.858;4.392;2023-09-18T11:53:49;12.52;;;2.65;;
43678;SDS011;29279;50.858;4.392;2023-09-18T11:56:18;5.72;;;2.58;;
43678;SDS011;29279;50.858;4.392;2023-09-18T11:58:45;5.80;;;2.20;;
43678;SDS011;29279;50.858;4.392;2023-09-18T12:01:14;10.07;;;3.08;;
43678;SDS011;29279;50.858;4.392;2023-09-18T12:03:41;7.18;;;3.15;;
43678;SDS011;29279;50.858;4.392;2023-09-18T12:06:07;8.52;;;2.00;;
43678;SDS011;29279;50.858;4.392;2023-09-18T12:08:35;6.55;;;2.05;;
43678;SDS011;29279;50.858;4.392;2023-09-18T12:11:03;4.53;;;1.90;;
43678;SDS011;29279;50.858;4.392;2023-09-18T12:13:33;5.60;;;2.20;;
43678;SDS011;29279;50.858;4.392;2023-09-18T12:16:00;7.03;;;1.77;;
43678;SDS011;29279;50.858;4.392;2023-09-18T12:18:27;9.55;;;1.55;;
43678;SDS011;29279;50.858;4.392;2023-09-18T12:20:55;4.72;;;2.10;;
43678;SDS011;29279;50.858;4.392;2023-09-18T12:23:23;10.85;;;2.47;;
43678;SDS011;29279;50.858;4.392;2023-09-18T12:25:50;9.80;;;3.10;;
43678;SDS011;29279;50.858;4.392;2023-09-18T12:28:25;13.20;;;2.45;;
43678;SDS011;29279;50.858;4.392;2023-09-18T12:30:54;7.20;;;2.00;;
43678;SDS011;29279;50.858;4.392;2023-09-18T12:33:22;5.25;;;2.08;;
43678;SDS011;29279;50.858;4.392;2023-09-18T12:35:49;13.02;;;2.72;;
43678;SDS011;29279;50.858;4.392;2023-09-18T12:38:16;5.75;;;1.92;;
43678;SDS011;29279;50.858;4.392;2023-09-18T12:40:44;6.90;;;2.03;;
43678;SDS011;29279;50.858;4.392;2023-09-18T12:43:11;27.58;;;8.15;;
43678;SDS011;29279;50.858;4.392;2023-09-18T12:45:40;36.97;;;6.78;;
43678;SDS011;29279;50.858;4.392;2023-09-18T12:48:07;7.13;;;2.33;;
43678;SDS011;29279;50.858;4.392;2023-09-18T12:50:34;7.15;;;2.70;;
43678;SDS011;29279;50.858;4.392;2023-09-18T12:53:06;18.65;;;4.07;;
43678;SDS011;29279;50.858;4.392;2023-09-18T12:55:33;8.43;;;2.25;;
43678;SDS011;29279;50.858;4.392;2023-09-18T12:57:58;9.88;;;2.20;;
43678;SDS011;29279;50.858;4.392;2023-09-18T13:00:25;7.03;;;2.58;;
43678;SDS011;29279;50.858;4.392;2023-09-18T13:02:51;6.38;;;1.80;;
43678;SDS011;29279;50.858;4.392;2023-09-18T13:05:21;6.70;;;1.80;;
43678;SDS011;29279;50.858;4.392;2023-09-18T13:07:51;9.23;;;2.15;;
43678;SDS011;29279;50.858;4.392;2023-09-18T13:10:20;2.97;;;1.77;;
43678;SDS011;29279;50.858;4.392;2023-09-18T13:15:33;8.93;;;1.65;;
43678;SDS011;29279;50.858;4.392;2023-09-18T13:18:00;5.38;;;1.80;;
43678;SDS011;29279;50.858;4.392;2023-09-18T13:20:33;3.97;;;1.75;;
43678;SDS011;29279;50.858;4.392;2023-09-18T13:23:00;4.57;;;1.80;;
43678;SDS011;29279;50.858;4.392;2023-09-18T13:25:32;5.05;;;1.75;;
43678;SDS011;29279;50.858;4.392;2023-09-18T13:28:03;7.15;;;1.60;;
43678;SDS011;29279;50.858;4.392;2023-09-18T13:30:31;7.13;;;2.00;;
43678;SDS011;29279;50.858;4.392;2023-09-18T13:33:09;6.57;;;2.28;;
43678;SDS011;29279;50.858;4.392;2023-09-18T13:35:39;4.07;;;1.77;;
43678;SDS011;29279;50.858;4.392;2023-09-18T13:38:06;7.07;;;1.85;;
43678;SDS011;29279;50.858;4.392;2023-09-18T13:40:33;6.75;;;1.98;;
43678;SDS011;29279;50.858;4.392;2023-09-18T13:43:08;5.72;;;1.70;;
43678;SDS011;29279;50.858;4.392;2023-09-18T13:45:34;3.28;;;1.70;;
43678;SDS011;29279;50.858;4.392;2023-09-18T13:48:01;4.55;;;1.80;;
43678;SDS011;29279;50.858;4.392;2023-09-18T13:50:30;6.03;;;1.95;;
43678;SDS011;29279;50.858;4.392;2023-09-18T13:52:56;4.22;;;1.92;;
43678;SDS011;29279;50.858;4.392;2023-09-18T13:55:22;10.25;;;2.55;;
43678;SDS011;29279;50.858;4.392;2023-09-18T13:57:48;7.25;;;2.13;;
43678;SDS011;29279;50.858;4.392;2023-09-18T14:00:14;6.75;;;1.75;;
43678;SDS011;29279;50.858;4.392;2023-09-18T14:02:40;9.75;;;2.30;;
43678;SDS011;29279;50.858;4.392;2023-09-18T14:05:06;9.10;;;2.08;;
43678;SDS011;29279;50.858;4.392;2023-09-18T14:07:34;5.45;;;1.88;;
43678;SDS011;29279;50.858;4.392;2023-09-18T14:09:59;9.45;;;1.70;;
43678;SDS011;29279;50.858;4.392;2023-09-18T14:12:29;6.53;;;1.77;;
43678;SDS011;29279;50.858;4.392;2023-09-18T14:14:55;8.63;;;1.95;;
43678;SDS011;29279;50.858;4.392;2023-09-18T14:17:21;9.48;;;2.00;;
43678;SDS011;29279;50.858;4.392;2023-09-18T14:19:47;9.13;;;2.70;;
43678;SDS011;29279;50.858;4.392;2023-09-18T14:22:13;7.18;;;2.42;;
43678;SDS011;29279;50.858;4.392;2023-09-18T14:24:39;4.32;;;1.55;;
43678;SDS011;29279;50.858;4.392;2023-09-18T14:27:06;7.05;;;2.40;;
43678;SDS011;29279;50.858;4.392;2023-09-18T14:29:32;5.82;;;2.35;;
43678;SDS011;29279;50.858;4.392;2023-09-18T14:31:59;4.97;;;2.35;;
43678;SDS011;29279;50.858;4.392;2023-09-18T14:34:25;5.97;;;2.55;;
43678;SDS011;29279;50.858;4.392;2023-09-18T14:36:50;5.00;;;2.00;;
43678;SDS011;29279;50.858;4.392;2023-09-18T14:39:16;6.53;;;2.08;;
43678;SDS011;29279;50.858;4.392;2023-09-18T14:41:42;11.32;;;3.70;;
43678;SDS011;29279;50.858;4.392;2023-09-18T14:44:08;8.68;;;3.30;;
43678;SDS011;29279;50.858;4.392;2023-09-18T14:46:35;12.38;;;2.80;;
43678;SDS011;29279;50.858;4.392;2023-09-18T14:49:02;7.85;;;2.75;;
43678;SDS011;29279;50.858;4.392;2023-09-18T14:51:29;7.38;;;2.90;;
43678;SDS011;29279;50.858;4.392;2023-09-18T14:53:55;7.43;;;2.60;;
43678;SDS011;29279;50.858;4.392;2023-09-18T14:56:21;4.85;;;2.55;;
43678;SDS011;29279;50.858;4.392;2023-09-18T14:58:46;5.50;;;2.80;;
43678;SDS011;29279;50.858;4.392;2023-09-18T15:01:12;8.68;;;2.80;;
43678;SDS011;29279;50.858;4.392;2023-09-18T15:03:39;6.50;;;2.78;;
43678;SDS011;29279;50.858;4.392;2023-09-18T15:06:06;6.68;;;1.98;;
43678;SDS011;29279;50.858;4.392;2023-09-18T15:08:36;4.18;;;2.20;;
43678;SDS011;29279;50.858;4.392;2023-09-18T15:11:02;5.90;;;2.78;;